Airfield :
LOGIN :

Register | Disclaimer

   EN    FR    IT 

 










Legend :    VFR   Marginal VFR   IFR   Intensive IFR   Very Intensive IFR
Visi :
Ceiling :
>= 8 km
>= 3000ft
5 to 8 km
1000 to 3000 ft
1500m to 5 km
500 to 1000 ft
800 to 1500m
200 to 500 ft
< 800m
< 200 ft
Symbols :   Thunderstorms  Fog  Heavy snow  Heavy precipitations  Wind > 20 kt
SIGMETs :     Misc.  Thunderstorms  Icing  Turbulence  Mountain Waves  Volcanic Ashes






- Airport Elevation : 81 ft
- IATA code : SCS


EGPM - Scatsta

CURRENT METAR :
  • 010520Z AUTO 25023KT 4500 -DZ BKN011/// OVC023/// 07/06 Q1010 RERA

EXPIRED METARs :
  • 010450Z AUTO 25024G34KT 8000 -RA FEW007/// BKN013/// 07/05 Q1011
  • 010420Z AUTO 25023KT 9999 FEW013/// 08/05 Q1012
  • 010350Z AUTO 25023KT 9999 SCT014/// 08/05 Q1012
  • 010320Z AUTO 26023KT 9999 FEW008/// 07/04 Q1013
  • 010250Z AUTO 26023KT 9999 BKN017/// 07/04 Q1014

TAF TAF EGPM
Valid from the 01 at 06:00 until the 01 at 15:00 UTC


010501Z 0106/0115 25020G30KT 9999 SCT015
BECMG 0106/0109 29020G30KT
TEMPO 0106/0108 4000 RADZ BKN008
PROB30
TEMPO 0112/0115 6000 SHRA BKN014



MET'MAP, your aeronautical weather chart ! - Copyright ORBIFLY December 2007 - Disclaimer

ORBIFLY MET'MAP TEAM :

Programming & Development : Alexandra Zaïnal
Concept & original design : Baudouin d'Aumeries
Assistance for programming : Marc-Olivier Méhu
Technical & hardware support : Manuel Goepfert

Contact : metmap@orbifly.com




SOURCES & CREDITS :

   NOAA